Simmons Army Air Field
KFBG : now visible

Airfield :











YOU CAN JOIN US ON...

 
LOGIN :

Register | Disclaimer

   EN    FR    IT 

 









Legend :    VFR   Marginal VFR   IFR   Intensive IFR   Very Intensive IFR
Visi :
Ceiling :
>= 8 km
>= 3000ft
5 to 8 km
1000 to 3000 ft
1500m to 5 km
500 to 1000 ft
800 to 1500m
200 to 500 ft
< 800m
< 200 ft
Symbols :   Thunderstorms  Fog  Heavy snow  Heavy precipitations  Wind > 20 kt






- Airport Elevation : 244 ft


KFBG - Simmons Army Air Field

CURRENT METAR :
  • 240029Z AUTO 00000KT 10SM CLR 15/15 A3005 RMK AO2 SLP178 $

EXPIRED METARs :
  • 232356Z AUTO 00000KT 10SM CLR 15/15 A3003 RMK AO2 SLP172 T01520146 10244 20152 52014 $
  • 232334Z AUTO 00000KT 10SM CLR 16/15 A3003 RMK AO2 SLP172 $
  • 232256Z AUTO 00000KT 10SM CLR 18/13 A3001 RMK AO2 SLP165 T01790132 $
  • 232156Z AUTO 00000KT 10SM CLR 22/10 A3000 RMK AO2 SLP161 T02240099 $

TAF TAF KFBG
Valid from the 23 at 17:00 until the 24 at 23:00 UTC


231700Z 2317/2423 03009KT 9999 SKC QNH3004INS
BECMG 2407/2408 14006KT 9999 FEW100 QNH3011INS TX24/2321Z TN12/2411Z
KZDC FIR / North America



MET'MAP, your aeronautical weather chart ! - Copyright ORBIFLY December 2007 - Disclaimer

ORBIFLY MET'MAP TEAM :

Programming & Development : Alexandra Zaïnal
Concept & original design : Baudouin d'Aumeries
Assistance for programming : Marc-Olivier Méhu
Technical & hardware support : Manuel Goepfert

Contact : metmap@orbifly.com




SOURCES & CREDITS :

   NOAA       Earth
Advisory